Time,TemperatureF,DewpointF,PressureIn,WindDirection,WindDirectionDegrees,WindSpeedMPH,WindSpeedGustMPH,Humidity,HourlyPrecipIn,Conditions,Clouds,dailyrainin,SoftwareType,DateUTC
2013-02-28 00:01:00,44.1,5.6,30.45,East,95,4.0,11.0,20,0.00,,---,0.00,VWS V13.01,2013-02-28 08:01:00,
2013-02-28 00:31:00,41.5,6.5,30.46,ESE,105,0.0,5.0,23,0.00,,---,0.00,VWS V13.01,2013-02-28 08:31:00,
2013-02-28 01:01:00,42.3,6.2,30.46,ESE,107,0.0,6.0,22,0.00,,---,0.00,VWS V13.01,2013-02-28 09:01:00,
2013-02-28 01:31:00,41.6,6.6,30.46,East,92,3.0,9.0,23,0.00,,---,0.00,VWS V13.01,2013-02-28 09:31:00,
2013-02-28 02:01:00,41.8,5.8,30.46,East,83,2.0,6.0,22,0.00,,---,0.00,VWS V13.01,2013-02-28 10:01:00,
2013-02-28 02:31:00,41.6,7.5,30.45,East,84,4.0,7.0,24,0.00,,---,0.00,VWS V13.01,2013-02-28 10:31:00,
2013-02-28 03:01:00,41.9,5.8,30.44,ENE,77,4.0,9.0,22,0.00,,---,0.00,VWS V13.01,2013-02-28 11:01:00,
2013-02-28 03:31:00,42.3,6.2,30.44,East,97,6.0,11.0,22,0.00,,---,0.00,VWS V13.01,2013-02-28 11:31:00,
2013-02-28 04:01:00,42.8,5.6,30.45,East,93,4.0,11.0,21,0.00,,---,0.00,VWS V13.01,2013-02-28 12:01:00,
2013-02-28 04:31:00,42.8,6.6,30.47,East,92,2.0,10.0,22,0.00,,---,0.00,VWS V13.01,2013-02-28 12:31:00,
2013-02-28 05:01:00,43.1,5.8,30.48,ENE,76,9.0,13.0,21,0.00,,---,0.00,VWS V13.01,2013-02-28 13:01:00,
2013-02-28 05:31:00,42.9,5.7,30.52,East,96,5.0,14.0,21,0.00,,---,0.00,VWS V13.01,2013-02-28 13:31:00,
2013-02-28 06:01:00,42.3,6.2,30.53,ESE,109,0.0,10.0,22,0.00,,---,0.00,VWS V13.01,2013-02-28 14:01:00,
2013-02-28 06:31:00,41.9,6.8,30.55,East,79,2.0,10.0,23,0.00,,---,0.00,VWS V13.01,2013-02-28 14:31:00,
2013-02-28 07:01:00,43.1,6.8,30.55,ESE,106,1.0,10.0,22,0.00,,---,0.00,VWS V13.01,2013-02-28 15:01:00,
2013-02-28 07:31:00,46.8,7.9,30.53,SSW,211,5.0,11.0,20,0.00,,---,0.00,VWS V13.01,2013-02-28 15:31:00,
2013-02-28 08:01:00,49.2,8.7,30.52,NE,56,9.0,11.0,19,0.00,,---,0.00,VWS V13.01,2013-02-28 16:01:00,
2013-02-28 08:31:00,50.1,8.3,30.53,ENE,62,7.0,16.0,18,0.00,,---,0.00,VWS V13.01,2013-02-28 16:31:00,
2013-02-28 09:01:00,51.6,9.5,30.51,East,82,9.0,18.0,18,0.00,,---,0.00,VWS V13.01,2013-02-28 17:01:00,
2013-02-28 09:31:00,52.3,10.1,30.50,East,80,10.0,19.0,18,0.00,,---,0.00,VWS V13.01,2013-02-28 17:31:00,
2013-02-28 10:01:00,53.8,12.5,30.51,SE,135,5.0,21.0,19,0.00,,---,0.00,VWS V13.01,2013-02-28 18:01:00,
2013-02-28 10:31:00,54.4,13.0,30.51,ENE,77,6.0,18.0,19,0.00,,---,0.00,VWS V13.01,2013-02-28 18:31:00,
2013-02-28 11:01:00,54.5,11.9,30.51,East,82,10.0,17.0,18,0.00,,---,0.00,VWS V13.01,2013-02-28 19:01:00,
2013-02-28 11:31:00,55.7,11.6,30.49,East,87,5.0,22.0,17,0.00,,---,0.00,VWS V13.01,2013-02-28 19:31:00,
2013-02-28 12:01:00,56.7,13.7,30.48,NE,56,8.0,16.0,18,0.00,,---,0.00,VWS V13.01,2013-02-28 20:01:00,
2013-02-28 12:31:00,56.9,15.1,30.48,ESE,122,5.0,18.0,19,0.00,,---,0.00,VWS V13.01,2013-02-28 20:31:00,
2013-02-28 13:01:00,57.0,15.2,30.47,East,99,5.0,18.0,19,0.00,,---,0.00,VWS V13.01,2013-02-28 21:01:00,
2013-02-28 13:31:00,57.3,14.2,30.48,SSE,162,7.0,18.0,18,0.00,,---,0.00,VWS V13.01,2013-02-28 21:31:00,
2013-02-28 14:01:00,57.3,12.9,30.45,ESE,108,10.0,18.0,17,0.00,,---,0.00,VWS V13.01,2013-02-28 22:01:00,
2013-02-28 14:31:00,57.3,14.2,30.46,SSE,167,12.0,16.0,18,0.00,,---,0.00,VWS V13.01,2013-02-28 22:31:00,
2013-02-28 15:01:00,57.2,12.8,30.46,SE,137,4.0,17.0,17,0.00,,---,0.00,VWS V13.01,2013-02-28 23:01:00,
2013-02-28 15:31:00,57.0,13.9,30.45,SW,223,5.0,15.0,18,0.00,,---,0.00,VWS V13.01,2013-02-28 23:31:00,
2013-02-28 16:01:00,56.5,13.5,30.44,East,99,11.0,15.0,18,0.00,,---,0.00,VWS V13.01,2013-03-01 00:01:00,
2013-02-28 16:31:00,54.7,13.3,30.44,East,94,11.0,15.0,19,0.00,,---,0.00,VWS V13.01,2013-03-01 00:31:00,
2013-02-28 17:01:00,53.1,11.9,30.47,ESE,116,4.0,13.0,19,0.00,,---,0.00,VWS V13.01,2013-03-01 01:01:00,
2013-02-28 17:31:00,51.0,12.5,30.50,East,96,3.0,10.0,21,0.00,,---,0.00,VWS V13.01,2013-03-01 01:31:00,
2013-02-28 18:01:00,48.2,12.1,30.52,East,89,5.0,6.0,23,0.00,,---,0.00,VWS V13.01,2013-03-01 02:01:00,
2013-02-28 18:31:00,46.8,11.9,30.52,East,92,1.0,6.0,24,0.00,,---,0.00,VWS V13.01,2013-03-01 02:31:00,
2013-02-28 19:01:00,47.9,10.9,30.53,East,84,4.0,9.0,22,0.00,,---,0.00,VWS V13.01,2013-03-01 03:01:00,
2013-02-28 19:31:00,47.1,11.2,30.51,East,93,0.0,7.0,23,0.00,,---,0.00,VWS V13.01,2013-03-01 03:31:00,
2013-02-28 20:01:00,46.2,11.4,30.53,East,94,0.0,4.0,24,0.00,,---,0.00,VWS V13.01,2013-03-01 04:01:00,
2013-02-28 20:31:00,46.5,10.7,30.52,East,94,0.0,4.0,23,0.00,,---,0.00,VWS V13.01,2013-03-01 04:31:00,
2013-02-28 21:01:00,48.6,11.5,30.51,ESE,114,1.0,6.0,22,0.00,,---,0.00,VWS V13.01,2013-03-01 05:01:00,
2013-02-28 21:31:00,50.7,11.1,30.48,ESE,108,3.0,12.0,20,0.00,,---,0.00,VWS V13.01,2013-03-01 05:31:00,
2013-02-28 22:01:00,48.2,12.1,30.50,East,99,5.0,7.0,23,0.00,,---,0.00,VWS V13.01,2013-03-01 06:01:00,
2013-02-28 22:31:00,47.9,11.9,30.50,East,82,2.0,9.0,23,0.00,,---,0.00,VWS V13.01,2013-03-01 06:31:00,
2013-02-28 23:01:00,48.7,13.5,30.49,SSE,165,2.0,7.0,24,0.00,,---,0.00,VWS V13.01,2013-03-01 07:01:00,
2013-02-28 23:31:00,49.2,14.0,30.48,ESE,121,5.0,12.0,24,0.00,,---,0.00,VWS V13.01,2013-03-01 07:31:00,